<?xml version="1.0" encoding="UTF-8" standalone="no" ?>
<gpx xmlns="http://www.topografix.com/GPX/1/1" xmlns:xsi="http://www.w3.org/2001/XMLSchema-instance" xsi:schemaLocation="http://www.topografix.com/GPX/1/1 http://www.topografix.com/GPX/1/1/gpx.xsd" version="1.1" creator="VisuGPX - https://www.visugpx.com">
  <metadata>
    <name>Tracé de  Montarnaud à Saint Guilhem le Désert / G...</name>
    <desc><![CDATA[CHEMIN DE COMPOSTELLE GR653. GUIDE LEPERE]]></desc>
  </metadata>
  <trk>
    <name><![CDATA[Roma Santiago - T52 Montarnaud - Saint Guilhem le Désert / G... - Wikiloc]]></name>
    <extensions>
      <line xmlns="http://www.topografix.com/GPX/gpx_style/0/2">
        <color>0000FF</color>
        <width>4</width>
      </line>
    </extensions>
    <trkseg>
      <trkpt lat="43.64885" lon="3.69831">
        <ele>122.9</ele>
        <time>2023-04-16T08:41:54Z</time>
      </trkpt>
      <trkpt lat="43.64899" lon="3.69785">
        <ele>123.805</ele>
        <time>2023-04-16T08:42:29Z</time>
      </trkpt>
      <trkpt lat="43.64915" lon="3.69789">
        <ele>124.2</ele>
      </trkpt>
      <trkpt lat="43.64924" lon="3.69754">
        <ele>126.4</ele>
        <time>2023-04-16T08:43:40Z</time>
      </trkpt>
      <trkpt lat="43.64936" lon="3.69695">
        <ele>133.8</ele>
      </trkpt>
      <trkpt lat="43.6495" lon="3.69672">
        <ele>134.3</ele>
        <time>2023-04-16T08:44:47Z</time>
      </trkpt>
      <trkpt lat="43.64964" lon="3.69659">
        <ele>129.1</ele>
        <time>2023-04-16T08:45:22Z</time>
      </trkpt>
      <trkpt lat="43.64961" lon="3.69616">
        <ele>128.8</ele>
      </trkpt>
      <trkpt lat="43.64949" lon="3.69588">
        <ele>132.5</ele>
        <time>2023-04-16T08:46:12Z</time>
      </trkpt>
      <trkpt lat="43.64946" lon="3.69549">
        <ele>129.7</ele>
      </trkpt>
      <trkpt lat="43.64957" lon="3.6952">
        <ele>126.2</ele>
        <time>2023-04-16T08:47:02Z</time>
      </trkpt>
      <trkpt lat="43.64926" lon="3.69468">
        <ele>133.662</ele>
        <time>2023-04-16T08:47:35Z</time>
      </trkpt>
      <trkpt lat="43.64944" lon="3.69428">
        <ele>120.135</ele>
        <time>2023-04-16T08:48:03Z</time>
      </trkpt>
      <trkpt lat="43.64934" lon="3.69378">
        <ele>128.273</ele>
        <time>2023-04-16T08:48:31Z</time>
      </trkpt>
      <trkpt lat="43.65002" lon="3.69207">
        <ele>134.6</ele>
        <time>2023-04-16T08:50:24Z</time>
      </trkpt>
      <trkpt lat="43.65065" lon="3.69253">
        <ele>135.2</ele>
        <time>2023-04-16T08:51:31Z</time>
      </trkpt>
      <trkpt lat="43.6507" lon="3.69237">
        <ele>135.7</ele>
        <time>2023-04-16T08:51:55Z</time>
      </trkpt>
      <trkpt lat="43.65055" lon="3.6914">
        <ele>138</ele>
      </trkpt>
      <trkpt lat="43.65053" lon="3.69074">
        <ele>140.5</ele>
      </trkpt>
      <trkpt lat="43.65029" lon="3.68995">
        <ele>154.018</ele>
        <time>2023-04-16T08:53:55Z</time>
      </trkpt>
      <trkpt lat="43.65036" lon="3.68909">
        <ele>162.598</ele>
        <time>2023-04-16T08:54:40Z</time>
      </trkpt>
      <trkpt lat="43.65055" lon="3.68741">
        <ele>153.617</ele>
        <time>2023-04-16T08:56:25Z</time>
      </trkpt>
      <trkpt lat="43.65091" lon="3.68646">
        <ele>149.809</ele>
        <time>2023-04-16T08:57:43Z</time>
      </trkpt>
      <trkpt lat="43.65123" lon="3.68488">
        <ele>167.952</ele>
        <time>2023-04-16T08:59:11Z</time>
      </trkpt>
      <trkpt lat="43.651" lon="3.6842">
        <ele>169.7</ele>
      </trkpt>
      <trkpt lat="43.65093" lon="3.68361">
        <ele>175.6</ele>
        <time>2023-04-16T09:00:31Z</time>
      </trkpt>
      <trkpt lat="43.65112" lon="3.68348">
        <ele>173.9</ele>
      </trkpt>
      <trkpt lat="43.65141" lon="3.68355">
        <ele>177.822</ele>
        <time>2023-04-16T09:01:09Z</time>
      </trkpt>
      <trkpt lat="43.65188" lon="3.68315">
        <ele>177.1</ele>
        <time>2023-04-16T09:02:05Z</time>
      </trkpt>
      <trkpt lat="43.65192" lon="3.68296">
        <ele>179.7</ele>
      </trkpt>
      <trkpt lat="43.65184" lon="3.68278">
        <ele>184.462</ele>
        <time>2023-04-16T09:02:43Z</time>
      </trkpt>
      <trkpt lat="43.65188" lon="3.68258">
        <ele>182.3</ele>
      </trkpt>
      <trkpt lat="43.65184" lon="3.68214">
        <ele>189.2</ele>
        <time>2023-04-16T09:04:43Z</time>
      </trkpt>
      <trkpt lat="43.65188" lon="3.68167">
        <ele>198.5</ele>
        <time>2023-04-16T09:06:21Z</time>
      </trkpt>
      <trkpt lat="43.65173" lon="3.68128">
        <ele>210.9</ele>
        <time>2023-04-16T09:07:28Z</time>
      </trkpt>
      <trkpt lat="43.65185" lon="3.68067">
        <ele>222</ele>
      </trkpt>
      <trkpt lat="43.65219" lon="3.68007">
        <ele>230.823</ele>
        <time>2023-04-16T09:10:45Z</time>
      </trkpt>
      <trkpt lat="43.65244" lon="3.67964">
        <ele>233</ele>
      </trkpt>
      <trkpt lat="43.65286" lon="3.67918">
        <ele>241.2</ele>
        <time>2023-04-16T09:12:48Z</time>
      </trkpt>
      <trkpt lat="43.65314" lon="3.67899">
        <ele>246.8</ele>
        <time>2023-04-16T09:13:32Z</time>
      </trkpt>
      <trkpt lat="43.65332" lon="3.67872">
        <ele>252.2</ele>
        <time>2023-04-16T09:14:15Z</time>
      </trkpt>
      <trkpt lat="43.65341" lon="3.67819">
        <ele>260.1</ele>
      </trkpt>
      <trkpt lat="43.65333" lon="3.67788">
        <ele>260.4</ele>
      </trkpt>
      <trkpt lat="43.65355" lon="3.67648">
        <ele>250</ele>
      </trkpt>
      <trkpt lat="43.65362" lon="3.67514">
        <ele>256.109</ele>
        <time>2023-04-16T09:18:43Z</time>
      </trkpt>
      <trkpt lat="43.6543" lon="3.6723">
        <ele>256.28</ele>
        <time>2023-04-16T09:21:40Z</time>
      </trkpt>
      <trkpt lat="43.65441" lon="3.67188">
        <ele>252.9</ele>
      </trkpt>
      <trkpt lat="43.65454" lon="3.67188">
        <ele>253.2</ele>
      </trkpt>
      <trkpt lat="43.65502" lon="3.67132">
        <ele>248.8</ele>
        <time>2023-04-16T09:22:58Z</time>
      </trkpt>
      <trkpt lat="43.65551" lon="3.67039">
        <ele>240.5</ele>
        <time>2023-04-16T09:23:58Z</time>
      </trkpt>
      <trkpt lat="43.65588" lon="3.66872">
        <ele>242.3</ele>
      </trkpt>
      <trkpt lat="43.65626" lon="3.66742">
        <ele>248.957</ele>
        <time>2023-04-16T09:27:00Z</time>
      </trkpt>
      <trkpt lat="43.65687" lon="3.66647">
        <ele>264.51</ele>
        <time>2023-04-16T09:28:06Z</time>
      </trkpt>
      <trkpt lat="43.65714" lon="3.66541">
        <ele>260.388</ele>
        <time>2023-04-16T09:29:18Z</time>
      </trkpt>
      <trkpt lat="43.65809" lon="3.66493">
        <ele>234.2</ele>
        <time>2023-04-16T09:30:25Z</time>
      </trkpt>
      <trkpt lat="43.65912" lon="3.66475">
        <ele>217.6</ele>
        <time>2023-04-16T09:32:06Z</time>
      </trkpt>
      <trkpt lat="43.65875" lon="3.6637">
        <ele>218.1</ele>
        <time>2023-04-16T09:32:30Z</time>
      </trkpt>
      <trkpt lat="43.65873" lon="3.66298">
        <ele>221.9</ele>
        <time>2023-04-16T09:32:56Z</time>
      </trkpt>
      <trkpt lat="43.65889" lon="3.66214">
        <ele>220.7</ele>
      </trkpt>
      <trkpt lat="43.65918" lon="3.66176">
        <ele>226.421</ele>
        <time>2023-04-16T09:34:42Z</time>
      </trkpt>
      <trkpt lat="43.66035" lon="3.66096">
        <ele>230.913</ele>
        <time>2023-04-16T09:36:18Z</time>
      </trkpt>
      <trkpt lat="43.66063" lon="3.66025">
        <ele>215.209</ele>
        <time>2023-04-16T09:37:04Z</time>
      </trkpt>
      <trkpt lat="43.66065" lon="3.65976">
        <ele>208.097</ele>
        <time>2023-04-16T09:37:30Z</time>
      </trkpt>
      <trkpt lat="43.66036" lon="3.65901">
        <ele>202.879</ele>
        <time>2023-04-16T09:38:31Z</time>
      </trkpt>
      <trkpt lat="43.66024" lon="3.65821">
        <ele>201.297</ele>
        <time>2023-04-16T09:39:16Z</time>
      </trkpt>
      <trkpt lat="43.66037" lon="3.65536">
        <ele>193.464</ele>
        <time>2023-04-16T09:41:48Z</time>
      </trkpt>
      <trkpt lat="43.66051" lon="3.65463">
        <ele>194.897</ele>
        <time>2023-04-16T09:42:30Z</time>
      </trkpt>
      <trkpt lat="43.66084" lon="3.65389">
        <ele>199.455</ele>
        <time>2023-04-16T09:43:21Z</time>
      </trkpt>
      <trkpt lat="43.66081" lon="3.64992">
        <ele>177.99</ele>
        <time>2023-04-16T09:48:39Z</time>
      </trkpt>
      <trkpt lat="43.661" lon="3.64833">
        <ele>176.976</ele>
        <time>2023-04-16T09:50:21Z</time>
      </trkpt>
      <trkpt lat="43.66163" lon="3.64531">
        <ele>196.128</ele>
        <time>2023-04-16T09:53:42Z</time>
      </trkpt>
      <trkpt lat="43.66185" lon="3.64495">
        <ele>199.339</ele>
        <time>2023-04-16T09:54:18Z</time>
      </trkpt>
      <trkpt lat="43.66178" lon="3.64466">
        <ele>200.801</ele>
        <time>2023-04-16T09:54:47Z</time>
      </trkpt>
      <trkpt lat="43.66219" lon="3.64459">
        <ele>205.524</ele>
        <time>2023-04-16T10:18:09Z</time>
      </trkpt>
      <trkpt lat="43.66265" lon="3.64453">
        <ele>207.416</ele>
        <time>2023-04-16T10:18:48Z</time>
      </trkpt>
      <trkpt lat="43.66364" lon="3.645">
        <ele>215.564</ele>
        <time>2023-04-16T10:20:29Z</time>
      </trkpt>
      <trkpt lat="43.66383" lon="3.64443">
        <ele>207.7</ele>
        <time>2023-04-16T10:21:07Z</time>
      </trkpt>
      <trkpt lat="43.66379" lon="3.64411">
        <ele>206.4</ele>
      </trkpt>
      <trkpt lat="43.66376" lon="3.64336">
        <ele>204.1</ele>
      </trkpt>
      <trkpt lat="43.66377" lon="3.64186">
        <ele>200.3</ele>
        <time>2023-04-16T10:23:04Z</time>
      </trkpt>
      <trkpt lat="43.66382" lon="3.64147">
        <ele>199.3</ele>
        <time>2023-04-16T10:24:00Z</time>
      </trkpt>
      <trkpt lat="43.66495" lon="3.63986">
        <ele>202.927</ele>
        <time>2023-04-16T10:25:50Z</time>
      </trkpt>
      <trkpt lat="43.66673" lon="3.63783">
        <ele>206.243</ele>
        <time>2023-04-16T10:28:55Z</time>
      </trkpt>
      <trkpt lat="43.66841" lon="3.63646">
        <ele>196.195</ele>
        <time>2023-04-16T10:32:05Z</time>
      </trkpt>
      <trkpt lat="43.66975" lon="3.63585">
        <ele>195.184</ele>
        <time>2023-04-16T10:33:55Z</time>
      </trkpt>
      <trkpt lat="43.67037" lon="3.6357">
        <ele>193.807</ele>
        <time>2023-04-16T10:34:43Z</time>
      </trkpt>
      <trkpt lat="43.6714" lon="3.63565">
        <ele>182.317</ele>
        <time>2023-04-16T10:36:26Z</time>
      </trkpt>
      <trkpt lat="43.67363" lon="3.63595">
        <ele>181.609</ele>
        <time>2023-04-16T10:39:21Z</time>
      </trkpt>
      <trkpt lat="43.67472" lon="3.63587">
        <ele>176.629</ele>
        <time>2023-04-16T10:40:48Z</time>
      </trkpt>
      <trkpt lat="43.67555" lon="3.63553">
        <ele>179.171</ele>
        <time>2023-04-16T10:41:55Z</time>
      </trkpt>
      <trkpt lat="43.67708" lon="3.63425">
        <ele>182.169</ele>
        <time>2023-04-16T10:44:09Z</time>
      </trkpt>
      <trkpt lat="43.67824" lon="3.63265">
        <ele>176.096</ele>
        <time>2023-04-16T10:46:41Z</time>
      </trkpt>
      <trkpt lat="43.67893" lon="3.63115">
        <ele>170.099</ele>
        <time>2023-04-16T10:48:24Z</time>
      </trkpt>
      <trkpt lat="43.67909" lon="3.63027">
        <ele>173.067</ele>
        <time>2023-04-16T10:49:16Z</time>
      </trkpt>
      <trkpt lat="43.6797" lon="3.62942">
        <ele>164.632</ele>
        <time>2023-04-16T10:50:29Z</time>
      </trkpt>
      <trkpt lat="43.68177" lon="3.62459">
        <ele>160.678</ele>
        <time>2023-04-16T10:55:55Z</time>
      </trkpt>
      <trkpt lat="43.68214" lon="3.62344">
        <ele>157.89</ele>
        <time>2023-04-16T10:57:14Z</time>
      </trkpt>
      <trkpt lat="43.68306" lon="3.61821">
        <ele>153.629</ele>
        <time>2023-04-16T11:03:18Z</time>
      </trkpt>
      <trkpt lat="43.68277" lon="3.61673">
        <ele>151.4</ele>
        <time>2023-04-16T11:04:47Z</time>
      </trkpt>
      <trkpt lat="43.68178" lon="3.61528">
        <ele>139.42</ele>
        <time>2023-04-16T11:06:50Z</time>
      </trkpt>
      <trkpt lat="43.68115" lon="3.61462">
        <ele>145.109</ele>
        <time>2023-04-16T11:07:50Z</time>
      </trkpt>
      <trkpt lat="43.68112" lon="3.61411">
        <ele>144.133</ele>
        <time>2023-04-16T11:08:14Z</time>
      </trkpt>
      <trkpt lat="43.68077" lon="3.61323">
        <ele>141.015</ele>
        <time>2023-04-16T11:09:32Z</time>
      </trkpt>
      <trkpt lat="43.67997" lon="3.61191">
        <ele>139.783</ele>
        <time>2023-04-16T11:11:04Z</time>
      </trkpt>
      <trkpt lat="43.67805" lon="3.61096">
        <ele>137.82</ele>
        <time>2023-04-16T11:13:55Z</time>
      </trkpt>
      <trkpt lat="43.67749" lon="3.61021">
        <ele>130.753</ele>
        <time>2023-04-16T11:15:03Z</time>
      </trkpt>
      <trkpt lat="43.67734" lon="3.6096">
        <ele>131.171</ele>
        <time>2023-04-16T11:15:42Z</time>
      </trkpt>
      <trkpt lat="43.6761" lon="3.60727">
        <ele>128.276</ele>
        <time>2023-04-16T11:18:19Z</time>
      </trkpt>
      <trkpt lat="43.67507" lon="3.60644">
        <ele>136.622</ele>
        <time>2023-04-16T11:19:57Z</time>
      </trkpt>
      <trkpt lat="43.67447" lon="3.60569">
        <ele>142.174</ele>
        <time>2023-04-16T11:27:33Z</time>
      </trkpt>
      <trkpt lat="43.6744" lon="3.60578">
        <ele>139.819</ele>
        <time>2023-04-16T11:44:01Z</time>
      </trkpt>
      <trkpt lat="43.67433" lon="3.60545">
        <ele>140.509</ele>
        <time>2023-04-16T11:51:41Z</time>
      </trkpt>
      <trkpt lat="43.67464" lon="3.60394">
        <ele>154.819</ele>
        <time>2023-04-16T11:53:41Z</time>
      </trkpt>
      <trkpt lat="43.67432" lon="3.60324">
        <ele>153.909</ele>
        <time>2023-04-16T11:54:36Z</time>
      </trkpt>
      <trkpt lat="43.67416" lon="3.60309">
        <ele>154.142</ele>
        <time>2023-04-16T11:54:53Z</time>
      </trkpt>
      <trkpt lat="43.67293" lon="3.60278">
        <ele>164.934</ele>
        <time>2023-04-16T11:56:48Z</time>
      </trkpt>
      <trkpt lat="43.67211" lon="3.60152">
        <ele>169.392</ele>
        <time>2023-04-16T11:58:26Z</time>
      </trkpt>
      <trkpt lat="43.6721" lon="3.60132">
        <ele>170.079</ele>
        <time>2023-04-16T11:58:38Z</time>
      </trkpt>
      <trkpt lat="43.67274" lon="3.60061">
        <ele>171.122</ele>
        <time>2023-04-16T11:59:44Z</time>
      </trkpt>
      <trkpt lat="43.67218" lon="3.59966">
        <ele>168.82</ele>
        <time>2023-04-16T12:01:32Z</time>
      </trkpt>
      <trkpt lat="43.67212" lon="3.59853">
        <ele>155.3</ele>
      </trkpt>
      <trkpt lat="43.6723" lon="3.59719">
        <ele>156.045</ele>
        <time>2023-04-16T12:04:44Z</time>
      </trkpt>
      <trkpt lat="43.67251" lon="3.59681">
        <ele>155.141</ele>
        <time>2023-04-16T12:05:09Z</time>
      </trkpt>
      <trkpt lat="43.67307" lon="3.59646">
        <ele>148.233</ele>
        <time>2023-04-16T12:06:00Z</time>
      </trkpt>
      <trkpt lat="43.67264" lon="3.59635">
        <ele>140.3</ele>
      </trkpt>
      <trkpt lat="43.67214" lon="3.59642">
        <ele>148.779</ele>
        <time>2023-04-16T12:07:17Z</time>
      </trkpt>
      <trkpt lat="43.67171" lon="3.59594">
        <ele>139.1</ele>
        <time>2023-04-16T12:08:28Z</time>
      </trkpt>
      <trkpt lat="43.67307" lon="3.5924">
        <ele>136.925</ele>
        <time>2023-04-16T12:12:04Z</time>
      </trkpt>
      <trkpt lat="43.67459" lon="3.59078">
        <ele>145.009</ele>
        <time>2023-04-16T12:14:53Z</time>
      </trkpt>
      <trkpt lat="43.67594" lon="3.58968">
        <ele>132.798</ele>
        <time>2023-04-16T12:16:46Z</time>
      </trkpt>
      <trkpt lat="43.67666" lon="3.58961">
        <ele>130.04</ele>
        <time>2023-04-16T12:17:38Z</time>
      </trkpt>
      <trkpt lat="43.67706" lon="3.58982">
        <ele>118.098</ele>
        <time>2023-04-16T12:18:15Z</time>
      </trkpt>
      <trkpt lat="43.67763" lon="3.58982">
        <ele>117.045</ele>
        <time>2023-04-16T12:18:58Z</time>
      </trkpt>
      <trkpt lat="43.67835" lon="3.58933">
        <ele>113.278</ele>
        <time>2023-04-16T12:19:56Z</time>
      </trkpt>
      <trkpt lat="43.67987" lon="3.58869">
        <ele>92.916</ele>
        <time>2023-04-16T12:22:01Z</time>
      </trkpt>
      <trkpt lat="43.68055" lon="3.58818">
        <ele>89.121</ele>
        <time>2023-04-16T12:22:54Z</time>
      </trkpt>
      <trkpt lat="43.681" lon="3.588">
        <ele>86.617</ele>
        <time>2023-04-16T12:23:28Z</time>
      </trkpt>
      <trkpt lat="43.68139" lon="3.5881">
        <ele>86.229</ele>
        <time>2023-04-16T12:23:56Z</time>
      </trkpt>
      <trkpt lat="43.68187" lon="3.58703">
        <ele>86.987</ele>
        <time>2023-04-16T12:25:25Z</time>
      </trkpt>
      <trkpt lat="43.6824" lon="3.58668">
        <ele>79.242</ele>
        <time>2023-04-16T12:26:10Z</time>
      </trkpt>
      <trkpt lat="43.68259" lon="3.58623">
        <ele>67.4</ele>
      </trkpt>
      <trkpt lat="43.68289" lon="3.58609">
        <ele>73.326</ele>
        <time>2023-04-16T12:26:59Z</time>
      </trkpt>
      <trkpt lat="43.68299" lon="3.58626">
        <ele>72.109</ele>
        <time>2023-04-16T12:27:12Z</time>
      </trkpt>
      <trkpt lat="43.68338" lon="3.58607">
        <ele>69.299</ele>
        <time>2023-04-16T12:27:51Z</time>
      </trkpt>
      <trkpt lat="43.68392" lon="3.58615">
        <ele>60.8</ele>
      </trkpt>
      <trkpt lat="43.68416" lon="3.58623">
        <ele>73.381</ele>
        <time>2023-04-16T12:29:24Z</time>
      </trkpt>
      <trkpt lat="43.68425" lon="3.58616">
        <ele>61.2</ele>
        <time>2023-04-16T12:30:07Z</time>
      </trkpt>
      <trkpt lat="43.68445" lon="3.58635">
        <ele>62.9</ele>
      </trkpt>
      <trkpt lat="43.68481" lon="3.5864">
        <ele>65.6</ele>
        <time>2023-04-16T12:32:57Z</time>
      </trkpt>
      <trkpt lat="43.68481" lon="3.58649">
        <ele>66</ele>
      </trkpt>
      <trkpt lat="43.6861" lon="3.58591">
        <ele>68</ele>
        <time>2023-04-16T12:34:51Z</time>
      </trkpt>
      <trkpt lat="43.68645" lon="3.58569">
        <ele>80.197</ele>
        <time>2023-04-16T12:35:47Z</time>
      </trkpt>
      <trkpt lat="43.68731" lon="3.58524">
        <ele>66</ele>
        <time>2023-04-16T12:37:01Z</time>
      </trkpt>
      <trkpt lat="43.68826" lon="3.58468">
        <ele>75.12</ele>
        <time>2023-04-16T12:38:24Z</time>
      </trkpt>
      <trkpt lat="43.68978" lon="3.58392">
        <ele>76.359</ele>
        <time>2023-04-16T12:41:36Z</time>
      </trkpt>
      <trkpt lat="43.69045" lon="3.58343">
        <ele>65.8</ele>
      </trkpt>
      <trkpt lat="43.69099" lon="3.58288">
        <ele>72.603</ele>
        <time>2023-04-16T12:43:33Z</time>
      </trkpt>
      <trkpt lat="43.69192" lon="3.58229">
        <ele>71.523</ele>
        <time>2023-04-16T12:44:57Z</time>
      </trkpt>
      <trkpt lat="43.69222" lon="3.58232">
        <ele>61</ele>
        <time>2023-04-16T12:45:19Z</time>
      </trkpt>
      <trkpt lat="43.69236" lon="3.58281">
        <ele>72.246</ele>
        <time>2023-04-16T12:45:53Z</time>
      </trkpt>
      <trkpt lat="43.69254" lon="3.58437">
        <ele>76.678</ele>
        <time>2023-04-16T12:47:31Z</time>
      </trkpt>
      <trkpt lat="43.69388" lon="3.58476">
        <ele>71.856</ele>
        <time>2023-04-16T12:49:18Z</time>
      </trkpt>
      <trkpt lat="43.69469" lon="3.58405">
        <ele>74.753</ele>
        <time>2023-04-16T12:50:32Z</time>
      </trkpt>
      <trkpt lat="43.69626" lon="3.5831">
        <ele>79.896</ele>
        <time>2023-04-16T12:52:42Z</time>
      </trkpt>
      <trkpt lat="43.69829" lon="3.58319">
        <ele>76.314</ele>
        <time>2023-04-16T12:55:14Z</time>
      </trkpt>
      <trkpt lat="43.69873" lon="3.58277">
        <ele>74.399</ele>
        <time>2023-04-16T12:55:57Z</time>
      </trkpt>
      <trkpt lat="43.69907" lon="3.58263">
        <ele>78.445</ele>
        <time>2023-04-16T12:56:22Z</time>
      </trkpt>
      <trkpt lat="43.69997" lon="3.58272">
        <ele>79.447</ele>
        <time>2023-04-16T12:57:57Z</time>
      </trkpt>
      <trkpt lat="43.70074" lon="3.58158">
        <ele>81.123</ele>
        <time>2023-04-16T13:15:09Z</time>
      </trkpt>
      <trkpt lat="43.70135" lon="3.58116">
        <ele>78.883</ele>
        <time>2023-04-16T13:15:59Z</time>
      </trkpt>
      <trkpt lat="43.70187" lon="3.58027">
        <ele>79.811</ele>
        <time>2023-04-16T13:17:03Z</time>
      </trkpt>
      <trkpt lat="43.70289" lon="3.58009">
        <ele>84.309</ele>
        <time>2023-04-16T13:18:25Z</time>
      </trkpt>
      <trkpt lat="43.70441" lon="3.57949">
        <ele>86.173</ele>
        <time>2023-04-16T13:20:45Z</time>
      </trkpt>
      <trkpt lat="43.70723" lon="3.57787">
        <ele>89.595</ele>
        <time>2023-04-16T13:24:54Z</time>
      </trkpt>
      <trkpt lat="43.70802" lon="3.57779">
        <ele>95.943</ele>
        <time>2023-04-16T13:25:55Z</time>
      </trkpt>
      <trkpt lat="43.70892" lon="3.57722">
        <ele>106.46</ele>
        <time>2023-04-16T13:27:21Z</time>
      </trkpt>
      <trkpt lat="43.70889" lon="3.57668">
        <ele>104.533</ele>
        <time>2023-04-16T13:27:52Z</time>
      </trkpt>
      <trkpt lat="43.70858" lon="3.57594">
        <ele>106.991</ele>
        <time>2023-04-16T13:28:41Z</time>
      </trkpt>
      <trkpt lat="43.70864" lon="3.5755">
        <ele>108.496</ele>
        <time>2023-04-16T13:29:04Z</time>
      </trkpt>
      <trkpt lat="43.70844" lon="3.57502">
        <ele>108.012</ele>
        <time>2023-04-16T13:29:31Z</time>
      </trkpt>
      <trkpt lat="43.70854" lon="3.57464">
        <ele>106.344</ele>
        <time>2023-04-16T13:29:54Z</time>
      </trkpt>
      <trkpt lat="43.70843" lon="3.57404">
        <ele>101.063</ele>
        <time>2023-04-16T13:30:29Z</time>
      </trkpt>
      <trkpt lat="43.70846" lon="3.57062">
        <ele>103.244</ele>
        <time>2023-04-16T13:34:49Z</time>
      </trkpt>
      <trkpt lat="43.70767" lon="3.56867">
        <ele>103.618</ele>
        <time>2023-04-16T13:36:50Z</time>
      </trkpt>
      <trkpt lat="43.70766" lon="3.56771">
        <ele>102.009</ele>
        <time>2023-04-16T13:37:41Z</time>
      </trkpt>
      <trkpt lat="43.70686" lon="3.56446">
        <ele>97.837</ele>
        <time>2023-04-16T13:41:29Z</time>
      </trkpt>
      <trkpt lat="43.70672" lon="3.56313">
        <ele>96.589</ele>
        <time>2023-04-16T13:42:38Z</time>
      </trkpt>
      <trkpt lat="43.70686" lon="3.56238">
        <ele>91.797</ele>
        <time>2023-04-16T13:44:06Z</time>
      </trkpt>
      <trkpt lat="43.7068" lon="3.56165">
        <ele>89.064</ele>
        <time>2023-04-16T13:44:43Z</time>
      </trkpt>
      <trkpt lat="43.70707" lon="3.56094">
        <ele>85.097</ele>
        <time>2023-04-16T13:45:27Z</time>
      </trkpt>
      <trkpt lat="43.70694" lon="3.56012">
        <ele>78.515</ele>
        <time>2023-04-16T13:46:14Z</time>
      </trkpt>
      <trkpt lat="43.70718" lon="3.55967">
        <ele>78.83</ele>
        <time>2023-04-16T13:46:41Z</time>
      </trkpt>
      <trkpt lat="43.70716" lon="3.55931">
        <ele>74.896</ele>
        <time>2023-04-16T13:47:04Z</time>
      </trkpt>
      <trkpt lat="43.70787" lon="3.55815">
        <ele>71.688</ele>
        <time>2023-04-16T13:48:55Z</time>
      </trkpt>
      <trkpt lat="43.70819" lon="3.55785">
        <ele>69.035</ele>
        <time>2023-04-16T13:49:23Z</time>
      </trkpt>
      <trkpt lat="43.70791" lon="3.55681">
        <ele>70.986</ele>
        <time>2023-04-16T13:52:49Z</time>
      </trkpt>
      <trkpt lat="43.70865" lon="3.55605">
        <ele>65.114</ele>
        <time>2023-04-16T13:54:17Z</time>
      </trkpt>
      <trkpt lat="43.7098" lon="3.55335">
        <ele>73.209</ele>
        <time>2023-04-16T13:57:24Z</time>
      </trkpt>
      <trkpt lat="43.71009" lon="3.55308">
        <ele>78.684</ele>
        <time>2023-04-16T13:57:50Z</time>
      </trkpt>
      <trkpt lat="43.71135" lon="3.55238">
        <ele>67</ele>
        <time>2023-04-16T13:59:20Z</time>
      </trkpt>
      <trkpt lat="43.71201" lon="3.55238">
        <ele>74.654</ele>
        <time>2023-04-16T14:00:21Z</time>
      </trkpt>
      <trkpt lat="43.71276" lon="3.55238">
        <ele>69.9</ele>
      </trkpt>
      <trkpt lat="43.71336" lon="3.55275">
        <ele>73.161</ele>
        <time>2023-04-16T14:02:12Z</time>
      </trkpt>
      <trkpt lat="43.71483" lon="3.55249">
        <ele>71.784</ele>
        <time>2023-04-16T14:04:38Z</time>
      </trkpt>
      <trkpt lat="43.71609" lon="3.55245">
        <ele>66.792</ele>
        <time>2023-04-16T14:07:23Z</time>
      </trkpt>
      <trkpt lat="43.71695" lon="3.55266">
        <ele>66.767</ele>
        <time>2023-04-16T14:08:27Z</time>
      </trkpt>
      <trkpt lat="43.71735" lon="3.553">
        <ele>70.893</ele>
        <time>2023-04-16T14:09:00Z</time>
      </trkpt>
      <trkpt lat="43.71825" lon="3.55334">
        <ele>67.1</ele>
      </trkpt>
      <trkpt lat="43.71875" lon="3.55346">
        <ele>72.974</ele>
        <time>2023-04-16T14:13:04Z</time>
      </trkpt>
      <trkpt lat="43.71905" lon="3.55345">
        <ele>69.409</ele>
        <time>2023-04-16T14:41:18Z</time>
      </trkpt>
      <trkpt lat="43.72067" lon="3.55349">
        <ele>75.888</ele>
        <time>2023-04-16T14:43:17Z</time>
      </trkpt>
      <trkpt lat="43.72195" lon="3.553">
        <ele>72</ele>
        <time>2023-04-16T14:45:33Z</time>
      </trkpt>
      <trkpt lat="43.72296" lon="3.55268">
        <ele>67.3</ele>
        <time>2023-04-16T14:46:04Z</time>
      </trkpt>
      <trkpt lat="43.72376" lon="3.55171">
        <ele>73.915</ele>
        <time>2023-04-16T14:47:19Z</time>
      </trkpt>
      <trkpt lat="43.72402" lon="3.55107">
        <ele>71.568</ele>
        <time>2023-04-16T14:48:01Z</time>
      </trkpt>
      <trkpt lat="43.72456" lon="3.55049">
        <ele>74.936</ele>
        <time>2023-04-16T14:49:11Z</time>
      </trkpt>
      <trkpt lat="43.7261" lon="3.55017">
        <ele>71.821</ele>
        <time>2023-04-16T14:51:14Z</time>
      </trkpt>
      <trkpt lat="43.72635" lon="3.55017">
        <ele>65.8</ele>
        <time>2023-04-16T14:51:31Z</time>
      </trkpt>
      <trkpt lat="43.72646" lon="3.55018">
        <ele>66</ele>
        <time>2023-04-16T14:52:06Z</time>
      </trkpt>
      <trkpt lat="43.72746" lon="3.5505">
        <ele>69.3</ele>
      </trkpt>
      <trkpt lat="43.72756" lon="3.55061">
        <ele>67.8</ele>
        <time>2023-04-16T14:53:35Z</time>
      </trkpt>
      <trkpt lat="43.72782" lon="3.55083">
        <ele>68.4</ele>
      </trkpt>
      <trkpt lat="43.72827" lon="3.55107">
        <ele>73.443</ele>
        <time>2023-04-16T14:54:41Z</time>
      </trkpt>
      <trkpt lat="43.72933" lon="3.55216">
        <ele>68.1</ele>
      </trkpt>
      <trkpt lat="43.72964" lon="3.55248">
        <ele>66.5</ele>
        <time>2023-04-16T14:56:37Z</time>
      </trkpt>
      <trkpt lat="43.73022" lon="3.55274">
        <ele>69.5</ele>
        <time>2023-04-16T14:57:17Z</time>
      </trkpt>
      <trkpt lat="43.73107" lon="3.5532">
        <ele>78.899</ele>
        <time>2023-04-16T14:58:55Z</time>
      </trkpt>
      <trkpt lat="43.73174" lon="3.55324">
        <ele>82.941</ele>
        <time>2023-04-16T14:59:42Z</time>
      </trkpt>
      <trkpt lat="43.73225" lon="3.55365">
        <ele>85.389</ele>
        <time>2023-04-16T15:00:25Z</time>
      </trkpt>
      <trkpt lat="43.73253" lon="3.55366">
        <ele>76.4</ele>
        <time>2023-04-16T15:00:48Z</time>
      </trkpt>
      <trkpt lat="43.73281" lon="3.5537">
        <ele>86.617</ele>
        <time>2023-04-16T15:01:15Z</time>
      </trkpt>
      <trkpt lat="43.73314" lon="3.55383">
        <ele>87.492</ele>
        <time>2023-04-16T15:01:55Z</time>
      </trkpt>
      <trkpt lat="43.73343" lon="3.55325">
        <ele>82.6</ele>
      </trkpt>
      <trkpt lat="43.73373" lon="3.55237">
        <ele>92.618</ele>
        <time>2023-04-16T15:04:27Z</time>
      </trkpt>
      <trkpt lat="43.73381" lon="3.55148">
        <ele>89.8</ele>
        <time>2023-04-16T15:05:47Z</time>
      </trkpt>
      <trkpt lat="43.73381" lon="3.55133">
        <ele>90.7</ele>
      </trkpt>
      <trkpt lat="43.73381" lon="3.55006">
        <ele>106.761</ele>
        <time>2023-04-16T15:07:26Z</time>
      </trkpt>
      <trkpt lat="43.73403" lon="3.5497">
        <ele>105.9</ele>
      </trkpt>
      <trkpt lat="43.73408" lon="3.54942">
        <ele>105.6</ele>
      </trkpt>
      <trkpt lat="43.7343" lon="3.54925">
        <ele>109.6</ele>
      </trkpt>
      <trkpt lat="43.73449" lon="3.5489">
        <ele>120.421</ele>
        <time>2023-04-16T15:10:01Z</time>
      </trkpt>
      <trkpt lat="43.73431" lon="3.54863">
        <ele>123.013</ele>
        <time>2023-04-16T15:10:47Z</time>
      </trkpt>
    </trkseg>
  </trk>
</gpx>